createdAt,value
2023-02-14T00:00:48.941Z,9.38
2023-02-14T00:03:16.123Z,9.77
2023-02-14T00:05:42.799Z,9.32
2023-02-14T00:08:09.660Z,8.48
2023-02-14T00:10:36.446Z,8.23
2023-02-14T00:13:03.358Z,9.07
2023-02-14T00:15:30.165Z,8.10
2023-02-14T00:17:59.912Z,8.55
2023-02-14T00:20:28.198Z,8.35
2023-02-14T00:22:55.042Z,8.77
2023-02-14T00:25:22.047Z,8.90
2023-02-14T00:27:48.724Z,8.23
2023-02-14T00:30:15.489Z,9.95
2023-02-14T00:32:43.305Z,9.25
2023-02-14T00:35:10.897Z,9.77
2023-02-14T00:37:37.705Z,8.90
2023-02-14T00:40:06.532Z,9.10
2023-02-14T00:42:33.431Z,9.95
2023-02-14T00:45:00.125Z,9.07
2023-02-14T00:47:26.979Z,9.40
2023-02-14T00:49:53.862Z,10.50
2023-02-14T00:52:20.497Z,10.15
2023-02-14T00:54:47.353Z,9.30
2023-02-14T00:57:14.178Z,8.82
2023-02-14T00:59:41.045Z,8.82
2023-02-14T01:02:07.707Z,8.70
2023-02-14T01:04:34.647Z,8.25
2023-02-14T01:07:01.307Z,9.13
2023-02-14T01:09:28.030Z,8.73
2023-02-14T01:11:55.000Z,9.20
2023-02-14T01:14:21.970Z,11.07
2023-02-14T01:16:48.812Z,9.32
2023-02-14T01:19:15.548Z,9.85
2023-02-14T01:21:42.281Z,10.10
2023-02-14T01:24:14.942Z,9.32
2023-02-14T01:26:41.785Z,8.80
2023-02-14T01:29:08.562Z,9.82
2023-02-14T01:31:36.451Z,9.18
2023-02-14T01:34:03.597Z,9.13
2023-02-14T01:36:33.416Z,9.82
2023-02-14T01:39:05.538Z,10.13
2023-02-14T01:41:35.152Z,9.73
2023-02-14T01:44:15.261Z,9.07
2023-02-14T01:46:44.203Z,10.50
2023-02-14T01:49:31.070Z,10.60
2023-02-14T01:52:12.788Z,10.45
2023-02-14T01:54:45.451Z,9.40
2023-02-14T01:57:17.156Z,9.23
2023-02-14T02:00:19.514Z,11.10
2023-02-14T02:02:46.498Z,9.50
2023-02-14T02:05:15.285Z,8.88
2023-02-14T02:07:42.325Z,8.77
2023-02-14T02:10:09.528Z,8.88
2023-02-14T02:12:38.046Z,9.27
2023-02-14T02:15:07.029Z,9.55
2023-02-14T02:18:02.711Z,8.73
2023-02-14T02:20:51.257Z,10.15
2023-02-14T02:23:48.781Z,8.68
2023-02-14T02:26:53.249Z,9.70
2023-02-14T02:29:28.814Z,9.23
2023-02-14T02:32:29.698Z,8.80
2023-02-14T02:35:18.024Z,11.02
2023-02-14T02:38:31.756Z,9.05
2023-02-14T02:41:01.563Z,10.35
2023-02-14T02:43:44.208Z,9.98
2023-02-14T02:46:40.886Z,9.80
2023-02-14T02:49:48.534Z,10.75
2023-02-14T02:52:42.590Z,9.15
2023-02-14T02:55:17.670Z,10.52
2023-02-14T02:57:46.682Z,9.13
2023-02-14T03:00:16.025Z,9.90
2023-02-14T03:03:06.275Z,9.65
2023-02-14T03:05:35.009Z,10.30
2023-02-14T03:08:02.395Z,9.50
2023-02-14T03:10:33.282Z,8.60
2023-02-14T03:13:25.685Z,8.20
2023-02-14T03:16:03.566Z,10.10
2023-02-14T03:19:06.065Z,9.07
2023-02-14T03:22:04.859Z,10.15
2023-02-14T03:24:56.391Z,9.82
2023-02-14T03:27:31.198Z,9.65
2023-02-14T03:30:08.543Z,9.65
2023-02-14T03:32:46.170Z,10.73
2023-02-14T03:35:34.223Z,9.18
2023-02-14T03:38:08.388Z,11.65
2023-02-14T03:40:54.607Z,10.23
2023-02-14T03:43:34.366Z,10.88
2023-02-14T03:46:14.769Z,9.25
2023-02-14T03:48:42.948Z,8.55
2023-02-14T03:51:13.674Z,10.20
2023-02-14T03:53:46.293Z,11.20
2023-02-14T03:56:15.821Z,10.00
2023-02-14T03:58:50.293Z,9.30
2023-02-14T04:01:23.148Z,10.88
2023-02-14T04:03:52.542Z,10.07
2023-02-14T04:06:19.880Z,10.45
2023-02-14T04:08:47.041Z,9.27
2023-02-14T04:11:14.003Z,10.70
2023-02-14T04:13:40.714Z,10.70
2023-02-14T04:16:07.641Z,10.45
2023-02-14T04:18:53.057Z,8.95
2023-02-14T04:21:19.849Z,10.18
2023-02-14T04:23:46.517Z,9.38
2023-02-14T04:26:13.313Z,9.40
2023-02-14T04:28:40.150Z,8.90
2023-02-14T04:31:07.308Z,10.15
2023-02-14T04:33:34.506Z,11.85
2023-02-14T04:36:01.532Z,10.18
2023-02-14T04:38:28.266Z,9.90
2023-02-14T04:40:55.148Z,8.57
2023-02-14T04:43:21.939Z,10.25
2023-02-14T04:45:48.626Z,10.63
2023-02-14T04:48:15.378Z,10.38
2023-02-14T04:50:42.353Z,9.07
2023-02-14T04:53:08.968Z,10.20
2023-02-14T04:55:35.588Z,11.13
2023-02-14T04:58:02.342Z,9.73
2023-02-14T05:00:29.384Z,9.32
2023-02-14T05:02:56.191Z,9.82
2023-02-14T05:05:22.851Z,10.48
2023-02-14T05:07:49.641Z,8.50
2023-02-14T05:10:16.333Z,9.88
2023-02-14T05:12:43.187Z,10.32
2023-02-14T05:15:10.007Z,11.20
2023-02-14T05:17:37.132Z,10.88
2023-02-14T05:20:05.807Z,11.45
2023-02-14T05:22:32.487Z,10.30
2023-02-14T05:24:59.432Z,12.18
2023-02-14T05:27:26.253Z,11.15
2023-02-14T05:29:53.680Z,10.40
2023-02-14T05:32:20.298Z,11.52
2023-02-14T05:34:47.045Z,11.98
2023-02-14T05:37:14.794Z,11.05
2023-02-14T05:39:41.611Z,11.73
2023-02-14T05:44:33.925Z,11.93
2023-02-14T05:47:00.898Z,10.75
2023-02-14T05:49:27.473Z,11.25
2023-02-14T05:51:54.108Z,10.30
2023-02-14T05:54:20.758Z,11.30
2023-02-14T05:56:47.951Z,11.27
2023-02-14T05:59:14.763Z,12.70
2023-02-14T06:01:43.023Z,10.50
2023-02-14T06:04:09.653Z,11.38
2023-02-14T06:06:36.886Z,12.10
2023-02-14T06:09:03.870Z,11.35
2023-02-14T06:11:30.563Z,11.38
2023-02-14T06:13:57.333Z,10.38
2023-02-14T06:16:24.050Z,12.02
2023-02-14T06:18:50.711Z,11.60
2023-02-14T06:21:17.740Z,11.93
2023-02-14T06:23:44.554Z,9.80
2023-02-14T06:26:11.248Z,12.40
2023-02-14T06:28:37.810Z,11.77
2023-02-14T06:31:05.270Z,10.90
2023-02-14T06:33:31.989Z,11.60
2023-02-14T06:35:58.829Z,11.57
2023-02-14T06:38:25.429Z,10.82
2023-02-14T06:40:52.351Z,10.95
2023-02-14T06:43:18.939Z,10.57
2023-02-14T06:45:46.765Z,11.55
2023-02-14T06:48:13.417Z,9.63
2023-02-14T06:50:40.217Z,10.27
2023-02-14T06:53:07.017Z,11.07
2023-02-14T06:55:33.843Z,12.20
2023-02-14T06:58:00.690Z,11.02
2023-02-14T07:00:27.578Z,10.23
2023-02-14T07:02:54.287Z,11.68
2023-02-14T07:05:22.041Z,10.48
2023-02-14T07:07:49.008Z,11.52
2023-02-14T07:10:16.096Z,11.77
2023-02-14T07:12:42.781Z,9.90
2023-02-14T07:15:11.957Z,10.52
2023-02-14T07:17:39.006Z,9.32
2023-02-14T07:20:07.310Z,11.55
2023-02-14T07:22:34.271Z,11.25
2023-02-14T07:25:01.331Z,12.02
2023-02-14T07:27:31.304Z,10.95
2023-02-14T07:29:57.887Z,11.38
2023-02-14T07:32:24.975Z,11.13
2023-02-14T07:34:52.217Z,10.10
2023-02-14T07:37:19.445Z,13.50
2023-02-14T07:39:46.341Z,10.85
2023-02-14T07:42:13.350Z,10.43
2023-02-14T07:44:42.212Z,11.38
2023-02-14T07:47:12.873Z,10.43
2023-02-14T07:49:39.743Z,10.60
2023-02-14T07:52:06.877Z,11.77
2023-02-14T07:54:33.683Z,11.63
2023-02-14T07:57:00.928Z,10.57
2023-02-14T07:59:28.345Z,10.10
2023-02-14T08:01:55.262Z,10.43
2023-02-14T08:04:25.983Z,12.73
2023-02-14T08:06:56.125Z,10.48
2023-02-14T08:09:26.615Z,9.57
2023-02-14T08:12:22.656Z,11.60
2023-02-14T08:14:49.281Z,10.27
2023-02-14T08:17:16.172Z,10.95
2023-02-14T08:19:42.993Z,9.82
2023-02-14T08:22:09.828Z,11.23
2023-02-14T08:24:36.766Z,11.30
2023-02-14T08:27:03.565Z,10.50
2023-02-14T08:29:30.244Z,11.60
2023-02-14T08:32:01.994Z,11.35
2023-02-14T08:34:28.955Z,11.02
2023-02-14T08:36:56.915Z,9.48
2023-02-14T08:39:23.563Z,11.07
2023-02-14T08:41:50.399Z,9.40
2023-02-14T08:44:16.985Z,9.52
2023-02-14T08:46:43.784Z,10.20
2023-02-14T08:49:10.792Z,9.95
2023-02-14T08:51:37.736Z,9.38
2023-02-14T08:54:04.472Z,9.52
2023-02-14T08:56:31.326Z,9.82
2023-02-14T08:58:58.143Z,10.15
2023-02-14T09:01:24.837Z,9.48
2023-02-14T09:03:51.585Z,9.30
2023-02-14T09:06:18.422Z,10.68
2023-02-14T09:08:46.602Z,9.43
2023-02-14T09:11:18.851Z,10.57
2023-02-14T09:13:46.545Z,9.45
2023-02-14T09:16:17.508Z,9.30
2023-02-14T09:18:47.515Z,10.05
2023-02-14T09:21:17.710Z,8.20
2023-02-14T09:23:46.577Z,9.50
2023-02-14T09:26:14.956Z,9.55
2023-02-14T09:28:42.330Z,8.35
2023-02-14T09:31:20.639Z,8.85
2023-02-14T09:34:07.912Z,8.88
2023-02-14T09:36:53.140Z,8.27
2023-02-14T09:39:21.057Z,8.98
2023-02-14T09:41:56.913Z,8.65
2023-02-14T09:44:36.936Z,8.50
2023-02-14T09:47:42.899Z,7.75
2023-02-14T09:50:42.340Z,8.57
2023-02-14T09:53:26.714Z,8.35
2023-02-14T09:56:27.060Z,7.63
2023-02-14T09:59:15.792Z,8.70
2023-02-14T10:01:45.919Z,8.80
2023-02-14T10:04:30.532Z,7.72
2023-02-14T10:07:33.534Z,8.73
2023-02-14T10:10:14.750Z,8.85
2023-02-14T10:13:08.448Z,8.57
2023-02-14T10:15:41.447Z,8.25
2023-02-14T10:18:20.420Z,8.70
2023-02-14T10:20:57.485Z,7.88
2023-02-14T10:23:42.350Z,8.25
2023-02-14T10:26:21.258Z,8.77
2023-02-14T10:28:49.952Z,8.57
2023-02-14T10:31:29.626Z,8.73
2023-02-14T10:34:04.982Z,8.55
2023-02-14T10:36:34.875Z,9.55
2023-02-14T10:39:43.617Z,9.18
2023-02-14T10:42:48.512Z,9.20
2023-02-14T10:45:24.176Z,8.07
2023-02-14T10:47:56.017Z,7.80
2023-02-14T10:50:31.569Z,8.55
2023-02-14T10:53:09.974Z,8.48
2023-02-14T10:55:55.130Z,9.23
2023-02-14T10:58:23.549Z,7.60
2023-02-14T11:01:09.348Z,9.05
2023-02-14T11:03:38.748Z,8.88
2023-02-14T11:06:05.664Z,8.88
2023-02-14T11:08:34.760Z,8.40
2023-02-14T11:11:16.469Z,9.02
2023-02-14T11:13:43.701Z,8.00
2023-02-14T11:16:18.658Z,8.15
2023-02-14T11:18:45.207Z,8.40
2023-02-14T11:21:23.073Z,8.60
2023-02-14T11:23:51.602Z,8.98
2023-02-14T11:26:23.806Z,7.85
2023-02-14T11:29:04.031Z,8.77
2023-02-14T11:31:33.958Z,9.10
2023-02-14T11:34:04.841Z,7.90
2023-02-14T11:36:33.640Z,8.55
2023-02-14T11:39:13.933Z,7.72
2023-02-14T11:41:58.989Z,7.88
2023-02-14T11:44:28.484Z,8.15
2023-02-14T11:46:59.717Z,8.05
2023-02-14T11:49:34.527Z,7.30
2023-02-14T11:52:17.490Z,7.68
2023-02-14T11:54:49.487Z,7.80
2023-02-14T11:57:22.016Z,8.82
2023-02-14T11:59:53.321Z,8.35
2023-02-14T12:02:32.721Z,8.20
2023-02-14T12:05:04.279Z,8.25
2023-02-14T12:07:37.472Z,7.82
2023-02-14T12:10:22.051Z,8.07
2023-02-14T12:12:53.412Z,7.32
2023-02-14T12:15:40.833Z,9.10
2023-02-14T12:18:28.733Z,7.95
2023-02-14T12:21:18.286Z,7.10
2023-02-14T12:23:51.303Z,8.38
2023-02-14T12:26:35.359Z,7.75
2023-02-14T12:29:27.314Z,7.78
2023-02-14T12:31:59.171Z,7.70
2023-02-14T12:34:27.000Z,7.55
2023-02-14T12:37:19.734Z,7.55
2023-02-14T12:39:52.523Z,8.10
2023-02-14T12:42:32.874Z,8.02
2023-02-14T12:45:14.629Z,8.35
2023-02-14T12:48:04.928Z,7.72
2023-02-14T12:50:39.026Z,8.02
2023-02-14T12:53:52.021Z,7.55
2023-02-14T12:56:36.397Z,8.63
2023-02-14T12:59:32.378Z,8.38
2023-02-14T13:02:38.342Z,8.02
2023-02-14T13:05:32.110Z,7.95
2023-02-14T13:08:27.538Z,8.07
2023-02-14T13:11:08.191Z,7.05
2023-02-14T13:13:51.087Z,7.90
2023-02-14T13:16:22.737Z,8.07
2023-02-14T13:19:17.067Z,8.43
2023-02-14T13:21:45.266Z,7.20
2023-02-14T13:24:21.415Z,7.97
2023-02-14T13:26:53.908Z,8.70
2023-02-14T13:29:24.845Z,9.35
2023-02-14T13:32:02.236Z,7.82
2023-02-14T13:34:36.501Z,7.43
2023-02-14T13:37:08.909Z,7.95
2023-02-14T13:39:42.498Z,7.95
2023-02-14T13:42:12.676Z,8.32
2023-02-14T13:44:46.666Z,8.00
2023-02-14T13:47:20.650Z,8.50
2023-02-14T13:49:59.555Z,7.53
2023-02-14T13:52:42.900Z,8.27
2023-02-14T13:55:17.687Z,7.50
2023-02-14T13:57:45.138Z,7.43
2023-02-14T14:00:17.628Z,7.85
2023-02-14T14:02:46.357Z,8.43
2023-02-14T14:05:32.636Z,7.60
2023-02-14T14:08:23.339Z,8.02
2023-02-14T14:10:55.400Z,7.55
2023-02-14T14:13:40.461Z,8.43
2023-02-14T14:16:28.145Z,7.60
2023-02-14T14:19:09.752Z,8.48
2023-02-14T14:21:44.973Z,8.25
2023-02-14T14:24:30.103Z,8.00
2023-02-14T14:27:01.269Z,8.73
2023-02-14T14:29:43.691Z,7.63
2023-02-14T14:32:25.128Z,8.13
2023-02-14T14:34:55.189Z,8.10
2023-02-14T14:37:52.528Z,8.57
2023-02-14T14:40:32.198Z,8.07
2023-02-14T14:43:06.506Z,7.68
2023-02-14T14:45:33.816Z,8.88
2023-02-14T14:48:08.330Z,7.70
2023-02-14T14:50:36.610Z,6.90
2023-02-14T14:53:11.764Z,8.27
2023-02-14T14:55:44.984Z,8.68
2023-02-14T14:58:34.169Z,8.00
2023-02-14T15:01:01.025Z,8.60
2023-02-14T15:03:28.613Z,7.93
2023-02-14T15:06:17.370Z,7.88
2023-02-14T15:08:45.381Z,8.70
2023-02-14T15:11:34.470Z,8.68
2023-02-14T15:14:05.627Z,8.73
2023-02-14T15:16:40.585Z,7.57
2023-02-14T15:19:11.240Z,8.20
2023-02-14T15:21:44.238Z,9.32
2023-02-14T15:24:15.934Z,8.05
2023-02-14T15:26:45.381Z,8.00
2023-02-14T15:29:24.222Z,9.35
2023-02-14T15:31:53.157Z,8.48
2023-02-14T15:34:24.656Z,9.70
2023-02-14T15:36:53.908Z,8.55
2023-02-14T15:39:26.070Z,7.93
2023-02-14T15:41:55.701Z,8.38
2023-02-14T15:44:26.102Z,8.57
2023-02-14T15:46:58.829Z,8.57
2023-02-14T15:49:34.559Z,8.00
2023-02-14T15:52:04.397Z,9.23
2023-02-14T15:54:38.474Z,7.43
2023-02-14T15:57:07.712Z,8.18
2023-02-14T15:59:37.031Z,8.18
2023-02-14T16:02:42.289Z,7.95
2023-02-14T16:05:27.126Z,8.27
2023-02-14T16:08:01.072Z,8.02
2023-02-14T16:10:33.364Z,8.73
2023-02-14T16:13:06.512Z,8.68
2023-02-14T16:15:35.540Z,9.20
2023-02-14T16:18:08.306Z,8.20
2023-02-14T16:20:42.363Z,8.57
2023-02-14T16:23:28.060Z,8.10
2023-02-14T16:26:00.487Z,8.38
2023-02-14T16:28:31.755Z,8.10
2023-02-14T16:31:00.328Z,8.68
2023-02-14T16:33:30.411Z,8.25
2023-02-14T16:36:23.383Z,8.70
2023-02-14T16:38:51.629Z,8.15
2023-02-14T16:41:21.643Z,8.93
2023-02-14T16:43:49.290Z,9.68
2023-02-14T16:46:22.156Z,7.93
2023-02-14T16:48:52.695Z,8.63
2023-02-14T16:51:22.485Z,9.88
2023-02-14T16:53:50.243Z,9.63
2023-02-14T16:56:32.730Z,8.35
2023-02-14T16:59:00.533Z,9.43
2023-02-14T17:01:27.410Z,9.32
2023-02-14T17:03:54.081Z,8.68
2023-02-14T17:06:27.657Z,8.10
2023-02-14T17:08:56.323Z,8.45
2023-02-14T17:11:25.120Z,9.57
2023-02-14T17:13:53.028Z,8.18
2023-02-14T17:16:19.991Z,8.50
2023-02-14T17:18:49.681Z,10.15
2023-02-14T17:21:20.777Z,9.10
2023-02-14T17:23:47.801Z,9.70
2023-02-14T17:26:14.441Z,9.57
2023-02-14T17:28:41.258Z,9.60
2023-02-14T17:31:08.318Z,9.43
2023-02-14T17:33:35.548Z,8.52
2023-02-14T17:36:12.127Z,9.20
2023-02-14T17:38:40.297Z,8.70
2023-02-14T17:41:22.402Z,9.60
2023-02-14T17:43:50.241Z,9.27
2023-02-14T17:46:18.870Z,10.45
2023-02-14T17:48:46.219Z,9.07
2023-02-14T17:51:14.200Z,9.68
2023-02-14T17:53:43.849Z,9.93
2023-02-14T17:56:19.148Z,11.27
2023-02-14T17:58:50.542Z,9.70
2023-02-14T18:01:20.238Z,10.30
2023-02-14T18:03:47.245Z,9.88
2023-02-14T18:06:14.746Z,10.32
2023-02-14T18:08:49.408Z,9.98
2023-02-14T18:11:17.234Z,9.02
2023-02-14T18:13:44.466Z,9.80
2023-02-14T18:16:17.544Z,9.98
2023-02-14T18:18:45.202Z,10.02
2023-02-14T18:21:14.318Z,12.55
2023-02-14T18:23:41.196Z,9.40
2023-02-14T18:26:12.004Z,9.93
2023-02-14T18:28:39.454Z,9.80
2023-02-14T18:31:09.728Z,9.18
2023-02-14T18:33:37.136Z,10.15
2023-02-14T18:36:12.188Z,9.23
2023-02-14T18:38:40.754Z,10.20
2023-02-14T18:41:10.297Z,10.63
2023-02-14T18:43:37.554Z,9.23
2023-02-14T18:46:06.187Z,9.00
2023-02-14T18:48:35.806Z,9.38
2023-02-14T18:51:33.387Z,8.73
2023-02-14T18:54:02.138Z,9.55
2023-02-14T18:56:32.034Z,9.60
2023-02-14T18:59:05.404Z,9.27
2023-02-14T19:01:36.671Z,10.15
2023-02-14T19:04:06.440Z,9.60
2023-02-14T19:06:36.462Z,9.55
2023-02-14T19:09:07.832Z,10.30
2023-02-14T19:11:34.542Z,10.02
2023-02-14T19:14:02.691Z,10.02
2023-02-14T19:16:33.156Z,10.02
2023-02-14T19:19:02.658Z,10.00
2023-02-14T19:21:34.049Z,9.55
2023-02-14T19:24:02.065Z,9.32
2023-02-14T19:26:32.881Z,9.63
2023-02-14T19:29:06.632Z,10.52
2023-02-14T19:31:42.259Z,9.85
2023-02-14T19:34:19.321Z,9.90
2023-02-14T19:36:46.798Z,9.00
2023-02-14T19:39:14.322Z,10.80
2023-02-14T19:41:41.154Z,9.30
2023-02-14T19:44:10.241Z,8.57
2023-02-14T19:46:38.261Z,9.95
2023-02-14T19:49:05.034Z,9.68
2023-02-14T19:51:41.026Z,9.43
2023-02-14T19:54:12.764Z,9.88
2023-02-14T19:56:47.840Z,9.68
2023-02-14T19:59:20.200Z,9.48
2023-02-14T20:01:53.050Z,10.18
2023-02-14T20:04:22.548Z,9.57
2023-02-14T20:06:49.797Z,9.85
2023-02-14T20:09:18.573Z,10.00
2023-02-14T20:11:51.439Z,10.50
2023-02-14T20:14:21.006Z,8.98
2023-02-14T20:16:49.698Z,9.38
2023-02-14T20:19:19.388Z,10.20
2023-02-14T20:21:49.333Z,10.13
2023-02-14T20:24:18.916Z,9.77
2023-02-14T20:26:48.886Z,9.15
2023-02-14T20:29:18.839Z,10.70
2023-02-14T20:31:49.028Z,11.68
2023-02-14T20:34:16.460Z,9.50
2023-02-14T20:36:50.907Z,10.40
2023-02-14T20:39:18.658Z,9.52
2023-02-14T20:41:49.883Z,9.77
2023-02-14T20:44:21.929Z,10.40
2023-02-14T20:46:51.561Z,11.02
2023-02-14T20:49:19.311Z,10.45
2023-02-14T20:51:49.597Z,11.35
2023-02-14T20:54:18.014Z,11.02
2023-02-14T20:56:45.149Z,11.55
2023-02-14T20:59:11.899Z,11.70
2023-02-14T21:01:39.396Z,9.20
2023-02-14T21:04:06.374Z,10.75
2023-02-14T21:06:34.253Z,11.25
2023-02-14T21:09:01.246Z,10.95
2023-02-14T21:11:28.418Z,10.95
2023-02-14T21:14:00.160Z,12.27
2023-02-14T21:16:28.648Z,10.90
2023-02-14T21:18:59.341Z,11.10
2023-02-14T21:21:36.819Z,10.73
2023-02-14T21:24:07.460Z,11.45
2023-02-14T21:26:35.214Z,10.50
2023-02-14T21:29:02.357Z,11.45
2023-02-14T21:31:29.363Z,9.95
2023-02-14T21:33:58.164Z,9.32
2023-02-14T21:36:27.632Z,11.75
2023-02-14T21:38:58.913Z,11.13
2023-02-14T21:41:29.232Z,10.93
2023-02-14T21:43:59.701Z,11.82
2023-02-14T21:46:32.747Z,10.40
2023-02-14T21:49:19.568Z,10.57
2023-02-14T21:51:47.384Z,11.20
2023-02-14T21:54:15.028Z,10.63
2023-02-14T21:56:42.439Z,11.18
2023-02-14T21:59:10.544Z,11.38
2023-02-14T22:01:40.253Z,11.75
2023-02-14T22:04:09.495Z,10.48
2023-02-14T22:06:38.021Z,12.10
2023-02-14T22:09:05.655Z,10.75
2023-02-14T22:11:32.594Z,11.10
2023-02-14T22:14:00.344Z,10.88
2023-02-14T22:16:27.228Z,11.38
2023-02-14T22:18:54.260Z,12.50
2023-02-14T22:21:26.688Z,11.75
2023-02-14T22:23:54.759Z,11.20
2023-02-14T22:26:27.913Z,11.35
2023-02-14T22:29:00.341Z,11.27
2023-02-14T22:31:29.866Z,12.50
2023-02-14T22:33:56.836Z,11.52
2023-02-14T22:36:23.556Z,13.10
2023-02-14T22:38:50.426Z,10.60
2023-02-14T22:41:19.804Z,11.27
2023-02-14T22:43:46.899Z,11.63
2023-02-14T22:46:17.386Z,11.82
2023-02-14T22:48:44.474Z,12.82
2023-02-14T22:51:12.825Z,12.43
2023-02-14T22:53:39.625Z,12.02
2023-02-14T22:56:18.332Z,12.75
2023-02-14T22:58:45.525Z,12.48
2023-02-14T23:01:17.599Z,12.52
2023-02-14T23:03:45.538Z,12.70
2023-02-14T23:06:13.214Z,11.40
2023-02-14T23:08:45.388Z,12.60
2023-02-14T23:11:15.127Z,11.45
2023-02-14T23:14:00.790Z,12.55
2023-02-14T23:16:45.980Z,11.75
2023-02-14T23:19:36.655Z,11.82
2023-02-14T23:22:10.281Z,11.68
2023-02-14T23:24:37.318Z,11.88
2023-02-14T23:27:04.268Z,12.40
2023-02-14T23:29:31.297Z,12.95
2023-02-14T23:31:58.225Z,13.48
2023-02-14T23:34:29.928Z,13.70
2023-02-14T23:36:56.790Z,14.52
2023-02-14T23:39:23.627Z,12.63
2023-02-14T23:41:50.469Z,12.52
2023-02-14T23:44:27.851Z,13.55
2023-02-14T23:46:57.579Z,13.68
2023-02-14T23:49:25.913Z,12.88
2023-02-14T23:51:54.667Z,12.70
2023-02-14T23:54:22.744Z,12.93
2023-02-14T23:56:53.305Z,12.70
2023-02-14T23:59:21.376Z,13.02
